createdAt,value
2023-01-25T00:01:22.861Z,8.17
2023-01-25T00:06:27.611Z,10.33
2023-01-25T00:11:31.342Z,10.60
2023-01-25T00:16:34.877Z,9.33
2023-01-25T00:21:39.882Z,10.43
2023-01-25T00:26:45.053Z,8.80
2023-01-25T00:31:56.842Z,9.07
2023-01-25T00:37:04.876Z,8.37
2023-01-25T00:42:11.382Z,8.67
2023-01-25T00:47:15.210Z,9.37
2023-01-25T00:52:20.903Z,8.50
2023-01-25T00:57:24.384Z,9.83
2023-01-25T01:02:27.746Z,10.10
2023-01-25T01:07:32.492Z,9.20
2023-01-25T01:12:36.126Z,9.47
2023-01-25T01:17:39.587Z,9.43
2023-01-25T01:22:44.376Z,8.97
2023-01-25T01:27:47.829Z,9.27
2023-01-25T01:32:53.161Z,8.63
2023-01-25T01:37:58.031Z,9.13
2023-01-25T01:43:02.616Z,8.40
2023-01-25T01:48:06.412Z,9.47
2023-01-25T01:53:11.294Z,8.23
2023-01-25T01:58:15.402Z,8.20
2023-01-25T02:03:19.812Z,8.30
2023-01-25T02:08:26.133Z,8.63
2023-01-25T02:13:30.099Z,8.67
2023-01-25T02:18:34.401Z,8.03
2023-01-25T02:23:48.729Z,7.13
2023-01-25T02:28:57.874Z,7.57
2023-01-25T02:34:01.696Z,8.20
2023-01-25T02:39:08.770Z,8.57
2023-01-25T02:44:16.187Z,7.67
2023-01-25T02:49:20.007Z,7.83
2023-01-25T02:54:23.495Z,8.10
2023-01-25T02:59:28.197Z,8.47
2023-01-25T03:04:31.519Z,7.77
2023-01-25T03:09:34.911Z,8.10
2023-01-25T03:14:39.691Z,8.47
2023-01-25T03:19:43.066Z,8.87
2023-01-25T03:24:46.442Z,8.23
2023-01-25T03:29:51.221Z,7.97
2023-01-25T03:34:54.626Z,8.80
2023-01-25T03:39:57.954Z,8.60
2023-01-25T03:45:02.714Z,8.17
2023-01-25T03:50:06.716Z,8.87
2023-01-25T03:55:10.921Z,8.20
2023-01-25T04:00:16.932Z,8.53
2023-01-25T04:05:20.615Z,7.90
2023-01-25T04:10:23.964Z,8.30
2023-01-25T04:15:28.756Z,8.50
2023-01-25T04:20:32.095Z,8.03
2023-01-25T04:25:35.737Z,8.30
2023-01-25T04:30:40.586Z,8.30
2023-01-25T04:35:44.913Z,9.07
2023-01-25T04:40:48.257Z,8.20
2023-01-25T04:45:53.136Z,8.07
2023-01-25T04:50:56.550Z,8.03
2023-01-25T04:55:59.896Z,7.83
2023-01-25T05:01:05.677Z,8.20
2023-01-25T05:06:09.305Z,8.30
2023-01-25T05:11:12.625Z,8.07
2023-01-25T05:16:17.415Z,8.83
2023-01-25T05:21:44.969Z,7.80
2023-01-25T05:27:04.563Z,7.93
2023-01-25T05:32:11.225Z,7.60
2023-01-25T05:37:17.067Z,8.40
2023-01-25T05:42:20.970Z,8.13
2023-01-25T05:47:26.488Z,8.43
2023-01-25T05:52:29.957Z,8.13
2023-01-25T05:57:33.416Z,7.93
2023-01-25T06:02:38.294Z,9.03
2023-01-25T06:07:41.714Z,8.40
2023-01-25T06:12:45.034Z,9.33
2023-01-25T06:17:49.747Z,9.83
2023-01-25T06:22:53.776Z,10.07
2023-01-25T06:27:57.401Z,11.00
2023-01-25T06:33:02.759Z,9.90
2023-01-25T06:38:06.164Z,9.00
2023-01-25T06:43:09.965Z,8.57
2023-01-25T06:48:14.800Z,8.77
2023-01-25T06:53:18.158Z,16.90
2023-01-25T06:58:21.514Z,10.43
2023-01-25T07:03:27.595Z,10.50
2023-01-25T07:08:31.134Z,10.00
2023-01-25T07:13:35.680Z,9.27
2023-01-25T07:18:40.707Z,13.07
2023-01-25T07:23:44.978Z,11.20
2023-01-25T07:28:49.227Z,9.20
2023-01-25T07:33:55.518Z,9.47
2023-01-25T07:38:59.598Z,11.33
2023-01-25T07:44:03.234Z,9.20
2023-01-25T07:49:08.051Z,9.57
2023-01-25T07:54:12.733Z,11.50
2023-01-25T07:59:16.421Z,10.37
2023-01-25T08:05:21.152Z,10.57
2023-01-25T08:10:26.212Z,10.00
2023-01-25T08:15:29.586Z,10.47
2023-01-25T08:20:32.967Z,9.67
2023-01-25T08:25:37.814Z,9.17
2023-01-25T08:30:52.007Z,9.07
2023-01-25T08:35:59.698Z,9.70
2023-01-25T08:41:08.735Z,43.50
2023-01-25T08:46:12.986Z,16.03
2023-01-25T08:51:17.831Z,10.77
2023-01-25T08:56:23.040Z,10.20
2023-01-25T09:01:26.435Z,10.30
2023-01-25T09:06:29.782Z,11.73
2023-01-25T09:11:37.261Z,10.60
2023-01-25T09:16:41.856Z,10.20
2023-01-25T09:21:45.225Z,10.40
2023-01-25T09:26:59.085Z,10.60
2023-01-25T09:32:03.022Z,9.57
2023-01-25T09:37:06.463Z,9.93
2023-01-25T09:42:26.013Z,10.03
2023-01-25T09:47:36.949Z,9.60
2023-01-25T09:53:15.007Z,9.63
2023-01-25T09:58:23.297Z,10.47
2023-01-25T10:03:30.129Z,9.27
2023-01-25T10:08:37.221Z,9.10
2023-01-25T10:13:42.064Z,8.57
2023-01-25T10:18:57.753Z,9.13
2023-01-25T10:24:25.152Z,9.40
2023-01-25T10:29:33.187Z,9.83
2023-01-25T10:34:54.544Z,8.83
2023-01-25T10:40:04.547Z,9.37
2023-01-25T10:45:15.102Z,9.33
2023-01-25T10:50:45.192Z,9.70
2023-01-25T10:55:59.487Z,9.13
2023-01-25T11:01:07.137Z,9.13
2023-01-25T11:06:10.983Z,9.13
2023-01-25T11:11:26.520Z,9.20
2023-01-25T11:16:34.817Z,9.37
2023-01-25T11:21:38.188Z,9.70
2023-01-25T11:26:42.732Z,9.47
2023-01-25T11:31:51.683Z,9.37
2023-01-25T11:37:12.969Z,9.40
2023-01-25T11:42:29.081Z,9.13
2023-01-25T11:47:55.596Z,9.67
2023-01-25T11:53:17.779Z,9.93
2023-01-25T11:58:37.312Z,10.17
2023-01-25T12:04:24.555Z,9.43
2023-01-25T12:09:56.763Z,9.83
2023-01-25T12:15:15.510Z,9.57
2023-01-25T12:20:35.845Z,9.57
2023-01-25T12:25:47.258Z,10.40
2023-01-25T12:30:55.430Z,10.13
2023-01-25T12:36:07.991Z,9.87
2023-01-25T12:41:32.380Z,9.70
2023-01-25T12:46:43.675Z,10.27
2023-01-25T12:51:51.420Z,11.07
2023-01-25T12:57:06.285Z,10.40
2023-01-25T13:02:25.985Z,10.73
2023-01-25T13:07:37.691Z,11.50
2023-01-25T13:12:54.911Z,11.07
2023-01-25T13:17:58.321Z,11.10
2023-01-25T13:23:03.116Z,10.60
2023-01-25T13:28:43.472Z,11.40
2023-01-25T13:33:47.405Z,11.10
2023-01-25T13:38:52.269Z,11.37
2023-01-25T13:44:17.794Z,10.90
2023-01-25T13:49:28.399Z,9.90
2023-01-25T13:54:33.405Z,10.40
2023-01-25T13:59:36.756Z,8.60
2023-01-25T14:04:40.569Z,10.93
2023-01-25T14:09:46.307Z,11.07
2023-01-25T14:14:49.674Z,11.83
2023-01-25T14:19:55.708Z,11.23
2023-01-25T14:25:14.364Z,11.37
2023-01-25T14:30:20.943Z,11.70
2023-01-25T14:35:42.937Z,10.37
2023-01-25T14:40:49.807Z,12.73
2023-01-25T14:45:53.201Z,12.07
2023-01-25T14:51:05.297Z,11.80
2023-01-25T14:56:20.268Z,11.27
2023-01-25T15:01:30.884Z,11.20
2023-01-25T15:06:34.221Z,11.90
2023-01-25T15:11:45.583Z,11.77
2023-01-25T15:16:49.303Z,12.33
2023-01-25T15:21:52.937Z,11.23
2023-01-25T15:26:57.910Z,11.90
2023-01-25T15:32:01.942Z,11.83
2023-01-25T15:37:05.268Z,13.17
2023-01-25T15:42:11.110Z,12.73
2023-01-25T15:47:14.919Z,11.93
2023-01-25T15:52:19.134Z,11.73
2023-01-25T15:57:30.038Z,12.63
2023-01-25T16:02:34.190Z,12.80
2023-01-25T16:07:40.547Z,12.23
2023-01-25T16:12:45.704Z,12.30
2023-01-25T16:17:49.233Z,11.53
2023-01-25T16:22:55.532Z,12.00
2023-01-25T16:28:00.828Z,14.27
2023-01-25T16:33:04.376Z,11.77
2023-01-25T16:38:08.152Z,12.37
2023-01-25T16:43:14.226Z,13.63
2023-01-25T16:48:18.219Z,13.17
2023-01-25T16:53:24.020Z,12.23
2023-01-25T16:58:29.507Z,12.53
2023-01-25T17:03:34.142Z,13.70
2023-01-25T17:08:37.959Z,13.20
2023-01-25T17:13:45.062Z,12.83
2023-01-25T17:18:51.064Z,12.50
2023-01-25T17:23:58.177Z,13.00
2023-01-25T17:29:04.441Z,12.80
2023-01-25T17:34:10.645Z,11.70
2023-01-25T17:39:18.247Z,13.77
2023-01-25T17:44:25.532Z,14.87
2023-01-25T17:49:31.119Z,15.13
2023-01-25T17:54:38.715Z,13.93
2023-01-25T17:59:45.531Z,14.07
2023-01-25T18:04:50.947Z,13.17
2023-01-25T18:09:59.993Z,13.00
2023-01-25T18:15:07.371Z,13.77
2023-01-25T18:20:13.346Z,13.47
2023-01-25T18:25:34.299Z,14.03
2023-01-25T18:30:44.872Z,13.20
2023-01-25T18:35:52.588Z,12.70
2023-01-25T18:40:58.755Z,14.47
2023-01-25T18:46:05.650Z,14.67
2023-01-25T18:51:13.529Z,15.00
2023-01-25T18:56:24.344Z,14.70
2023-01-25T19:01:31.462Z,14.17
2023-01-25T19:06:37.231Z,14.47
2023-01-25T19:11:45.786Z,14.43
2023-01-25T19:16:52.939Z,15.67
2023-01-25T19:22:05.401Z,15.37
2023-01-25T19:27:11.217Z,15.50
2023-01-25T19:32:18.126Z,15.20
2023-01-25T19:37:23.794Z,15.43
2023-01-25T19:42:29.210Z,19.70
2023-01-25T19:47:37.323Z,17.90
2023-01-25T19:52:42.658Z,15.20
2023-01-25T19:57:50.232Z,14.57
2023-01-25T20:03:15.631Z,15.33
2023-01-25T20:08:22.510Z,14.50
2023-01-25T20:13:27.423Z,14.57
2023-01-25T20:18:36.925Z,14.80
2023-01-25T20:23:45.157Z,16.33
2023-01-25T20:28:52.362Z,14.77
2023-01-25T20:34:00.857Z,16.90
2023-01-25T20:39:06.014Z,16.80
2023-01-25T20:44:14.200Z,16.57
2023-01-25T20:49:21.470Z,15.07
2023-01-25T20:54:26.791Z,15.30
2023-01-25T20:59:33.814Z,14.83
2023-01-25T21:04:40.909Z,14.93
2023-01-25T21:09:45.361Z,15.00
2023-01-25T21:14:53.005Z,14.33
2023-01-25T21:20:00.868Z,14.03
2023-01-25T21:25:06.173Z,13.90
2023-01-25T21:30:12.071Z,13.83
2023-01-25T21:35:24.785Z,12.93
2023-01-25T21:40:29.600Z,14.47
2023-01-25T21:46:05.229Z,14.63
2023-01-25T21:51:30.024Z,14.33
2023-01-25T21:56:33.718Z,14.80
2023-01-25T22:01:37.076Z,13.43
2023-01-25T22:06:42.222Z,13.77
2023-01-25T22:11:46.888Z,14.63
2023-01-25T22:16:50.428Z,13.77
2023-01-25T22:21:55.251Z,14.67
2023-01-25T22:27:05.763Z,15.40
2023-01-25T22:32:12.249Z,14.63
2023-01-25T22:37:17.078Z,14.20
2023-01-25T22:42:20.514Z,14.73
2023-01-25T22:47:23.896Z,13.57
2023-01-25T22:52:28.683Z,14.90
2023-01-25T22:57:32.080Z,15.30
2023-01-25T23:02:37.891Z,14.80
2023-01-25T23:07:42.879Z,15.47
2023-01-25T23:12:46.317Z,15.60
2023-01-25T23:18:07.416Z,14.73
2023-01-25T23:23:12.599Z,14.70
2023-01-25T23:28:15.917Z,14.73
2023-01-25T23:33:20.914Z,14.23
2023-01-25T23:38:25.755Z,13.17
2023-01-25T23:43:29.190Z,13.97
2023-01-25T23:48:32.703Z,14.77
2023-01-25T23:53:38.046Z,14.60
2023-01-25T23:58:41.767Z,14.20
